Time;durP1;ratioP1;P1;durP2;ratioP2;P2;SDS_P1;SDS_P2;PMS_P1;PMS_P2;Temp;Humidity;BMP_temperature;BMP_pressure;BME280_temperature;BME280_humidity;BME280_pressure;Samples;Min_cycle;Max_cycle;Signal;HPM_P1;HPM_P2
2024/04/11 05:01:07;;;;;;;20.33;8.30;;;;;;;;;;6098033;21;20581;-78
2024/04/11 05:03:35;;;;;;;22.27;7.90;;;;;;;;;;5312371;26;20461;-78
2024/04/11 05:06:04;;;;;;;23.37;9.67;;;;;;;;;;5312109;26;20569;-77
2024/04/11 05:08:32;;;;;;;30.93;8.80;;;;;;;;;;5309960;26;21038;-79
2024/04/11 05:10:58;;;;;;;22.10;8.60;;;;;;;;;;5312275;26;20582;-78
2024/04/11 05:13:27;;;;;;;28.90;9.33;;;;;;;;;;5313628;26;20452;-79
2024/04/11 05:16:06;;;;;;;20.57;9.33;;;;;;;;;;5321377;26;20453;-78
2024/04/11 05:18:41;;;;;;;24.33;8.53;;;;;;;;;;5318642;26;20505;-78
2024/04/11 05:21:08;;;;;;;35.67;12.33;;;;;;;;;;5318898;26;20831;-77
2024/04/11 05:23:39;;;;;;;37.13;11.80;;;;;;;;;;5314276;26;20783;-78
2024/04/11 05:26:14;;;;;;;16.40;10.07;;;;;;;;;;5311121;26;20848;-79
2024/04/11 05:28:44;;;;;;;35.53;10.57;;;;;;;;;;5311701;26;20448;-78
2024/04/11 05:31:14;;;;;;;15.73;8.50;;;;;;;;;;5309642;26;20485;-78
2024/04/11 05:33:41;;;;;;;19.47;9.27;;;;;;;;;;5312303;26;20473;-79
2024/04/11 05:36:12;;;;;;;21.90;9.87;;;;;;;;;;5311100;26;20991;-79
2024/04/11 05:38:38;;;;;;;27.17;9.30;;;;;;;;;;5311769;26;20505;-79
2024/04/11 05:41:09;;;;;;;19.00;9.33;;;;;;;;;;5312619;26;20512;-79
2024/04/11 05:43:35;;;;;;;19.40;8.17;;;;;;;;;;5310939;26;20512;-79
2024/04/11 05:46:02;;;;;;;17.33;7.97;;;;;;;;;;5312214;26;20456;-79
2024/04/11 05:48:28;;;;;;;19.57;8.90;;;;;;;;;;5312578;26;20449;-79
2024/04/11 05:50:55;;;;;;;27.73;8.77;;;;;;;;;;5312871;26;20547;-79
2024/04/11 05:53:21;;;;;;;19.67;9.30;;;;;;;;;;5313162;26;20506;-79
2024/04/11 05:55:47;;;;;;;22.37;9.13;;;;;;;;;;5311697;26;20473;-79
2024/04/11 05:58:13;;;;;;;19.40;9.00;;;;;;;;;;5311901;26;20468;-79
2024/04/11 06:00:39;;;;;;;18.57;7.90;;;;;;;;;;5310501;26;21030;-80
2024/04/11 06:03:11;;;;;;;17.07;7.50;;;;;;;;;;5311533;26;20460;-79
2024/04/11 06:05:38;;;;;;;21.10;9.10;;;;;;;;;;5312542;26;20512;-79
2024/04/11 06:08:05;;;;;;;18.10;7.50;;;;;;;;;;5312594;26;20972;-80
2024/04/11 06:10:31;;;;;;;17.60;6.97;;;;;;;;;;5310677;26;20484;-79
2024/04/11 06:12:57;;;;;;;16.50;8.27;;;;;;;;;;5279659;26;20630;-82
2024/04/11 06:15:23;;;;;;;18.83;8.30;;;;;;;;;;5277197;27;20465;-77
2024/04/11 06:17:49;;;;;;;29.23;9.73;;;;;;;;;;5311091;26;20520;-79
2024/04/11 06:20:16;;;;;;;28.53;9.20;;;;;;;;;;5310121;26;20512;-78
2024/04/11 06:22:46;;;;;;;17.83;7.63;;;;;;;;;;5309339;26;20513;-78
2024/04/11 06:25:12;;;;;;;20.67;7.57;;;;;;;;;;5281893;27;21016;-78
2024/04/11 06:27:40;;;;;;;16.73;7.20;;;;;;;;;;5276159;27;20585;-77
2024/04/11 06:30:12;;;;;;;19.07;8.70;;;;;;;;;;5265456;27;20550;-78
2024/04/11 06:32:38;;;;;;;21.77;7.70;;;;;;;;;;5263347;27;20539;-78
2024/04/11 06:35:04;;;;;;;20.87;9.33;;;;;;;;;;5245151;27;20561;-78
2024/04/11 06:37:31;;;;;;;22.10;9.67;;;;;;;;;;5249572;27;20447;-78
2024/04/11 06:39:58;;;;;;;19.10;8.73;;;;;;;;;;5249686;27;20568;-78
2024/04/11 06:42:25;;;;;;;24.93;8.90;;;;;;;;;;5255064;27;20599;-80
2024/04/11 06:44:51;;;;;;;25.13;9.20;;;;;;;;;;5280619;27;20500;-79
2024/04/11 06:47:18;;;;;;;19.63;7.87;;;;;;;;;;5316642;26;20514;-78
2024/04/11 06:49:47;;;;;;;18.70;7.60;;;;;;;;;;5310218;26;20508;-78
2024/04/11 06:52:14;;;;;;;15.40;8.10;;;;;;;;;;5284105;27;20518;-78
2024/04/11 06:54:43;;;;;;;12.57;6.47;;;;;;;;;;5290469;27;20550;-78
2024/04/11 06:57:11;;;;;;;23.37;7.27;;;;;;;;;;5246270;27;20879;-78
2024/04/11 06:59:37;;;;;;;21.67;6.43;;;;;;;;;;5258316;27;20464;-77
2024/04/11 07:02:07;;;;;;;14.43;6.47;;;;;;;;;;5278065;27;20619;-76
2024/04/11 07:04:33;;;;;;;9.27;4.83;;;;;;;;;;5267484;27;20466;-76
2024/04/11 07:07:00;;;;;;;12.60;4.80;;;;;;;;;;5275532;27;20823;-77
2024/04/11 07:09:37;;;;;;;10.53;5.40;;;;;;;;;;5276212;27;20462;-76
2024/04/11 07:12:04;;;;;;;11.23;5.77;;;;;;;;;;5281738;27;20621;-78
2024/04/11 07:14:31;;;;;;;11.40;6.63;;;;;;;;;;5284056;27;20830;-78
2024/04/11 07:16:57;;;;;;;9.83;5.70;;;;;;;;;;5305503;27;20468;-78
2024/04/11 07:19:23;;;;;;;21.00;7.20;;;;;;;;;;5315436;26;20503;-78
2024/04/11 07:21:49;;;;;;;12.57;5.10;;;;;;;;;;5317668;26;20557;-77
2024/04/11 07:24:15;;;;;;;13.27;6.00;;;;;;;;;;5284451;26;20475;-78
2024/04/11 07:26:42;;;;;;;16.77;7.00;;;;;;;;;;5251208;27;20792;-77
2024/04/11 07:29:08;;;;;;;11.80;5.80;;;;;;;;;;5314426;27;20485;-78
2024/04/11 07:31:36;;;;;;;10.60;5.23;;;;;;;;;;5321609;26;20517;-78
2024/04/11 07:34:02;;;;;;;14.80;5.47;;;;;;;;;;5320977;26;20497;-78
2024/04/11 07:36:30;;;;;;;12.97;5.47;;;;;;;;;;5334010;26;20437;-75
2024/04/11 07:38:57;;;;;;;13.60;5.70;;;;;;;;;;5330186;26;20456;-74
2024/04/11 07:41:27;;;;;;;13.50;5.30;;;;;;;;;;5323225;26;20466;-76
2024/04/11 07:43:57;;;;;;;12.53;5.60;;;;;;;;;;5296516;26;20463;-74
2024/04/11 07:46:28;;;;;;;12.03;4.60;;;;;;;;;;5312038;27;20516;-75
2024/04/11 07:48:54;;;;;;;11.70;4.27;;;;;;;;;;5298177;26;20523;-74
2024/04/11 07:51:21;;;;;;;12.07;5.10;;;;;;;;;;5296091;27;20478;-74
2024/04/11 07:53:47;;;;;;;8.27;4.50;;;;;;;;;;5284341;27;20507;-76
2024/04/11 07:56:19;;;;;;;12.70;4.37;;;;;;;;;;5294076;27;20472;-75
2024/04/11 07:58:45;;;;;;;18.23;4.87;;;;;;;;;;5310438;26;20851;-75
2024/04/11 08:01:11;;;;;;;10.73;5.17;;;;;;;;;;5312181;26;20472;-76
2024/04/11 08:03:37;;;;;;;13.80;4.87;;;;;;;;;;5313187;26;21039;-77
2024/04/11 08:06:03;;;;;;;11.17;4.33;;;;;;;;;;5311246;26;20465;-77
2024/04/11 08:08:29;;;;;;;9.70;4.87;;;;;;;;;;5311642;26;21007;-76
2024/04/11 08:11:02;;;;;;;6.40;3.90;;;;;;;;;;5311628;26;20476;-76
2024/04/11 08:13:32;;;;;;;15.13;5.30;;;;;;;;;;5310948;26;20469;-77
2024/04/11 08:15:58;;;;;;;11.77;4.90;;;;;;;;;;5276857;27;20791;-75
2024/04/11 08:18:27;;;;;;;12.47;5.03;;;;;;;;;;5277502;27;20462;-76
2024/04/11 08:20:53;;;;;;;12.07;6.10;;;;;;;;;;5277306;27;20518;-76
2024/04/11 08:23:20;;;;;;;15.63;5.10;;;;;;;;;;5277587;27;20524;-76
2024/04/11 08:25:55;;;;;;;9.43;4.93;;;;;;;;;;5277509;27;20450;-75
2024/04/11 08:28:22;;;;;;;11.27;5.20;;;;;;;;;;5283499;27;20512;-77
2024/04/11 08:30:48;;;;;;;11.67;5.33;;;;;;;;;;5278303;27;20547;-77
2024/04/11 08:33:15;;;;;;;8.23;4.10;;;;;;;;;;5246133;27;20460;-75
2024/04/11 08:35:44;;;;;;;13.17;5.07;;;;;;;;;;5261989;27;20476;-75
2024/04/11 08:38:12;;;;;;;9.73;4.13;;;;;;;;;;5312123;26;20570;-74
2024/04/11 08:40:42;;;;;;;11.73;3.90;;;;;;;;;;5313803;26;20520;-75
2024/04/11 08:43:10;;;;;;;12.10;4.47;;;;;;;;;;5315722;26;20921;-75
2024/04/11 08:45:37;;;;;;;12.10;3.60;;;;;;;;;;5317464;26;20469;-77
2024/04/11 08:48:03;;;;;;;9.93;3.60;;;;;;;;;;5312346;26;20549;-76
2024/04/11 08:50:29;;;;;;;7.60;3.60;;;;;;;;;;5314781;26;20473;-75
2024/04/11 08:52:57;;;;;;;13.60;3.43;;;;;;;;;;5311448;26;20524;-75
2024/04/11 08:55:23;;;;;;;10.83;4.50;;;;;;;;;;5311237;26;20610;-76
2024/04/11 08:57:49;;;;;;;10.63;3.37;;;;;;;;;;5310023;26;20456;-77
2024/04/11 09:00:21;;;;;;;6.60;3.50;;;;;;;;;;5311644;26;20453;-77
2024/04/11 09:02:48;;;;;;;11.20;3.37;;;;;;;;;;5311700;26;20512;-77
2024/04/11 09:05:16;;;;;;;5.13;3.17;;;;;;;;;;5306525;26;20472;-77
2024/04/11 09:07:46;;;;;;;8.23;3.30;;;;;;;;;;5310657;26;20459;-76
2024/04/11 09:10:13;;;;;;;6.70;3.17;;;;;;;;;;5310515;26;20495;-77
2024/04/11 09:12:42;;;;;;;7.27;3.10;;;;;;;;;;5310845;26;20915;-77
2024/04/11 09:15:09;;;;;;;7.60;3.00;;;;;;;;;;5279353;26;20474;-77
2024/04/11 09:17:38;;;;;;;7.90;3.60;;;;;;;;;;5273671;27;20478;-79
2024/04/11 09:20:05;;;;;;;7.70;3.47;;;;;;;;;;5276193;27;20450;-77
2024/04/11 09:22:33;;;;;;;6.00;2.70;;;;;;;;;;5276928;27;20469;-77
2024/04/11 09:24:59;;;;;;;14.53;4.70;;;;;;;;;;5275069;27;20704;-77
2024/04/11 09:27:25;;;;;;;4.30;3.03;;;;;;;;;;5275689;27;20946;-77
2024/04/11 09:29:52;;;;;;;7.73;3.30;;;;;;;;;;5276913;27;20442;-76
2024/04/11 09:32:21;;;;;;;9.10;3.40;;;;;;;;;;5278787;27;20519;-77
2024/04/11 09:34:50;;;;;;;10.27;2.50;;;;;;;;;;5280108;27;20435;-77
2024/04/11 09:37:23;;;;;;;7.40;2.97;;;;;;;;;;5277070;27;20458;-77
2024/04/11 09:39:56;;;;;;;5.73;2.27;;;;;;;;;;5276964;27;20520;-76
2024/04/11 09:42:25;;;;;;;6.87;3.00;;;;;;;;;;5276431;27;20942;-77
2024/04/11 09:44:55;;;;;;;17.53;3.93;;;;;;;;;;5275874;27;20566;-76
2024/04/11 09:47:44;;;;;;;15.90;3.93;;;;;;;;;;5275494;27;20505;-75
2024/04/11 09:50:09;;;;;;;11.40;3.20;;;;;;;;;;5274296;27;20454;-76
2024/04/11 09:52:41;;;;;;;14.47;6.20;;;;;;;;;;5255632;27;20474;-77
2024/04/11 09:55:08;;;;;;;11.30;3.33;;;;;;;;;;5276027;27;21060;-74
2024/04/11 09:57:36;;;;;;;8.90;3.60;;;;;;;;;;5275796;27;21052;-75
2024/04/11 10:00:07;;;;;;;12.97;3.17;;;;;;;;;;5282498;27;20522;-76
2024/04/11 10:02:35;;;;;;;7.70;4.27;;;;;;;;;;5274605;27;20526;-76
2024/04/11 10:05:04;;;;;;;4.53;2.80;;;;;;;;;;5274165;27;20511;-75
2024/04/11 10:07:41;;;;;;;7.70;3.33;;;;;;;;;;5275432;27;20506;-75
2024/04/11 10:10:07;;;;;;;10.50;3.80;;;;;;;;;;5278735;27;20457;-76
2024/04/11 10:12:39;;;;;;;9.13;3.43;;;;;;;;;;5268777;27;20882;-75
2024/04/11 10:15:18;;;;;;;7.77;3.00;;;;;;;;;;5246022;27;20476;-76
2024/04/11 10:18:02;;;;;;;10.97;3.40;;;;;;;;;;5243315;27;20610;-75
2024/04/11 10:20:38;;;;;;;7.17;3.33;;;;;;;;;;5265421;27;20509;-76
2024/04/11 10:23:04;;;;;;;8.37;3.50;;;;;;;;;;5272547;27;20459;-77
2024/04/11 10:25:32;;;;;;;8.13;3.40;;;;;;;;;;5264254;27;21286;-76
2024/04/11 10:27:59;;;;;;;13.40;3.60;;;;;;;;;;5242785;27;20509;-77
2024/04/11 10:30:27;;;;;;;7.63;2.90;;;;;;;;;;5244464;27;20448;-77
2024/04/11 10:32:53;;;;;;;12.60;3.40;;;;;;;;;;5244647;27;20983;-78
2024/04/11 10:35:24;;;;;;;5.20;3.10;;;;;;;;;;5245188;27;20447;-78
2024/04/11 10:37:50;;;;;;;7.73;3.27;;;;;;;;;;5279354;27;20828;-78
2024/04/11 10:40:17;;;;;;;9.63;3.00;;;;;;;;;;5277207;27;20462;-78
2024/04/11 10:43:11;;;;;;;7.07;3.00;;;;;;;;;;5279022;27;20610;-78
2024/04/11 10:45:30;;;;;;;5.57;2.63;;;;;;;;;;5278881;27;20518;-78
2024/04/11 10:47:59;;;;;;;7.63;2.43;;;;;;;;;;5275773;27;20487;-78
2024/04/11 10:50:27;;;;;;;10.60;3.00;;;;;;;;;;5294428;27;20520;-78
2024/04/11 10:52:53;;;;;;;6.00;2.90;;;;;;;;;;5312873;26;20532;-79
2024/04/11 10:55:22;;;;;;;10.00;3.27;;;;;;;;;;5312601;26;20448;-79
2024/04/11 10:58:08;;;;;;;5.27;2.60;;;;;;;;;;5313382;26;20987;-77
2024/04/11 11:03:40;;;;;;;5.83;2.90;;;;;;;;;;5245989;27;20498;-78
2024/04/11 11:06:12;;;;;;;6.73;2.67;;;;;;;;;;5245239;27;20467;-78
2024/04/11 11:08:43;;;;;;;8.50;2.20;;;;;;;;;;5245730;27;20503;-77
2024/04/11 11:11:11;;;;;;;4.37;2.87;;;;;;;;;;5244641;27;20475;-77
2024/04/11 11:13:40;;;;;;;6.27;3.33;;;;;;;;;;5306811;21;20901;-74
2024/04/11 11:16:07;;;;;;;7.20;2.57;;;;;;;;;;5299267;26;20480;-75
2024/04/11 11:18:39;;;;;;;4.43;2.00;;;;;;;;;;5307001;26;21078;-75
2024/04/11 11:21:07;;;;;;;10.67;3.50;;;;;;;;;;5313911;26;20828;-73
2024/04/11 11:23:34;;;;;;;6.77;2.67;;;;;;;;;;5311186;26;20481;-73
2024/04/11 11:26:01;;;;;;;8.57;2.60;;;;;;;;;;5257522;27;20533;-74
2024/04/11 11:28:27;;;;;;;5.13;2.77;;;;;;;;;;5279744;27;20502;-76
2024/04/11 11:30:56;;;;;;;5.27;2.40;;;;;;;;;;5256753;27;20471;-76
2024/04/11 11:33:23;;;;;;;8.10;2.40;;;;;;;;;;5246731;27;20463;-76
2024/04/11 11:35:52;;;;;;;3.67;2.20;;;;;;;;;;5278720;27;20450;-76
2024/04/11 11:38:19;;;;;;;5.23;2.60;;;;;;;;;;5282020;27;21079;-75
2024/04/11 11:40:46;;;;;;;8.80;2.50;;;;;;;;;;5282493;27;20518;-72
2024/04/11 11:43:16;;;;;;;5.90;2.00;;;;;;;;;;5260245;27;20921;-73
2024/04/11 11:46:16;;;;;;;7.60;2.30;;;;;;;;;;5277995;27;20521;-74
2024/04/11 11:48:31;;;;;;;8.73;2.50;;;;;;;;;;5274309;27;20502;-73
2024/04/11 11:51:05;;;;;;;7.00;2.30;;;;;;;;;;5247205;27;20452;-73
2024/04/11 11:53:45;;;;;;;8.83;2.77;;;;;;;;;;5254879;27;20471;-73
2024/04/11 11:56:12;;;;;;;32.57;3.60;;;;;;;;;;5243550;27;20967;-74
2024/04/11 11:58:43;;;;;;;5.57;2.40;;;;;;;;;;5243721;27;20451;-74
2024/04/11 12:03:55;;;;;;;14.03;2.87;;;;;;;;;;5275819;27;20512;-75
2024/04/11 12:06:21;;;;;;;6.33;2.57;;;;;;;;;;5271208;27;20462;-75
2024/04/11 12:08:47;;;;;;;5.00;2.50;;;;;;;;;;5262421;27;20558;-74
2024/04/11 12:11:14;;;;;;;4.50;2.27;;;;;;;;;;5295884;27;20485;-74
2024/04/11 12:13:45;;;;;;;4.60;2.27;;;;;;;;;;5296085;27;20485;-74
2024/04/11 12:16:15;;;;;;;4.77;2.07;;;;;;;;;;5293449;27;20446;-73
2024/04/11 12:18:41;;;;;;;6.63;2.07;;;;;;;;;;5282840;27;20476;-72
2024/04/11 12:21:13;;;;;;;4.37;2.20;;;;;;;;;;5268283;27;20531;-75
2024/04/11 12:23:42;;;;;;;5.53;2.50;;;;;;;;;;5279654;27;20821;-74
2024/04/11 12:26:12;;;;;;;3.57;2.00;;;;;;;;;;5279924;27;20454;-73
2024/04/11 12:28:38;;;;;;;5.67;2.37;;;;;;;;;;5279714;27;20505;-73
2024/04/11 12:31:07;;;;;;;10.40;2.77;;;;;;;;;;5246970;27;20503;-74
2024/04/11 12:33:34;;;;;;;6.10;2.50;;;;;;;;;;5245761;27;20580;-73
2024/04/11 12:36:09;;;;;;;12.50;2.70;;;;;;;;;;5312632;27;20456;-74
2024/04/11 12:38:39;;;;;;;8.60;2.13;;;;;;;;;;5312262;27;20524;-73
2024/04/11 12:41:06;;;;;;;8.27;2.53;;;;;;;;;;5311698;26;20461;-73
2024/04/11 12:43:35;;;;;;;6.17;2.33;;;;;;;;;;5286700;26;20528;-74
2024/04/11 12:46:01;;;;;;;6.00;1.90;;;;;;;;;;5270042;27;21022;-74
2024/04/11 12:48:34;;;;;;;6.67;2.57;;;;;;;;;;5246877;27;20467;-73
2024/04/11 12:51:00;;;;;;;5.63;2.60;;;;;;;;;;5276958;27;20988;-74
2024/04/11 12:53:28;;;;;;;5.33;2.70;;;;;;;;;;5278413;27;20450;-75
2024/04/11 12:55:57;;;;;;;4.93;2.00;;;;;;;;;;5248089;27;20467;-73
2024/04/11 12:58:24;;;;;;;6.70;2.50;;;;;;;;;;5259516;27;20516;-75
2024/04/11 13:01:03;;;;;;;11.33;2.30;;;;;;;;;;5277844;27;20857;-74
2024/04/11 13:03:52;;;;;;;6.60;2.97;;;;;;;;;;5244027;27;20495;-75
2024/04/11 13:06:30;;;;;;;4.77;2.50;;;;;;;;;;5243381;27;20464;-75
2024/04/11 13:09:10;;;;;;;6.90;2.70;;;;;;;;;;5251207;27;20531;-72
2024/04/11 13:11:39;;;;;;;6.73;3.23;;;;;;;;;;5253977;27;20616;-75
2024/04/11 13:14:17;;;;;;;6.17;2.70;;;;;;;;;;5258713;27;20480;-74
2024/04/11 13:16:45;;;;;;;6.27;2.60;;;;;;;;;;5249414;27;20470;-74
2024/04/11 13:19:18;;;;;;;3.73;2.30;;;;;;;;;;5277998;27;20462;-74
2024/04/11 13:21:50;;;;;;;4.60;2.20;;;;;;;;;;5280339;27;20438;-73
2024/04/11 13:24:20;;;;;;;7.93;2.90;;;;;;;;;;5282948;27;20996;-74
2024/04/11 13:26:56;;;;;;;5.03;2.20;;;;;;;;;;5287580;27;20470;-74
2024/04/11 13:29:23;;;;;;;11.90;2.67;;;;;;;;;;5289326;27;20653;-73
2024/04/11 13:31:55;;;;;;;8.10;2.47;;;;;;;;;;5273913;27;20473;-74
2024/04/11 13:34:38;;;;;;;5.03;2.30;;;;;;;;;;5281442;27;20995;-74
2024/04/11 13:37:04;;;;;;;6.63;2.17;;;;;;;;;;5259892;27;21052;-74
2024/04/11 13:39:43;;;;;;;5.97;2.57;;;;;;;;;;5291256;27;20516;-75
2024/04/11 13:42:13;;;;;;;5.53;2.37;;;;;;;;;;5311566;26;20843;-74
2024/04/11 13:44:39;;;;;;;7.57;2.90;;;;;;;;;;5295318;27;20969;-75
2024/04/11 13:47:09;;;;;;;9.30;2.60;;;;;;;;;;5266631;27;20513;-74
2024/04/11 13:49:49;;;;;;;9.20;1.80;;;;;;;;;;5242727;27;20571;-74
2024/04/11 13:52:18;;;;;;;5.90;2.20;;;;;;;;;;5254965;27;21126;-75
2024/04/11 13:54:45;;;;;;;8.27;2.40;;;;;;;;;;5310358;26;20517;-73
2024/04/11 13:57:20;;;;;;;5.47;2.00;;;;;;;;;;5310443;26;20984;-75
2024/04/11 13:59:56;;;;;;;6.93;2.20;;;;;;;;;;5300372;27;20502;-74
2024/04/11 14:02:46;;;;;;;5.57;2.00;;;;;;;;;;5250192;27;20479;-73
2024/04/11 14:05:28;;;;;;;9.73;2.43;;;;;;;;;;5267770;27;20490;-75
2024/04/11 14:07:54;;;;;;;3.83;2.23;;;;;;;;;;5277205;27;20959;-75
2024/04/11 14:10:25;;;;;;;5.00;2.67;;;;;;;;;;5275740;27;20517;-75
2024/04/11 14:12:51;;;;;;;4.63;2.60;;;;;;;;;;5285492;27;21033;-75
2024/04/11 14:15:17;;;;;;;4.30;2.07;;;;;;;;;;5245080;27;20475;-74
2024/04/11 14:17:44;;;;;;;5.70;2.20;;;;;;;;;;5261196;27;20547;-73
2024/04/11 14:20:19;;;;;;;8.47;2.10;;;;;;;;;;5242788;27;20460;-75
2024/04/11 14:22:49;;;;;;;3.90;2.20;;;;;;;;;;5261802;27;20536;-72
2024/04/11 14:27:47;;;;;;;5.60;2.17;;;;;;;;;;5247880;27;21077;-73
2024/04/11 14:30:13;;;;;;;4.97;2.07;;;;;;;;;;5266012;27;20488;-73
2024/04/11 14:33:09;;;;;;;7.10;2.57;;;;;;;;;;5307991;26;20572;-74
2024/04/11 14:38:18;;;;;;;7.10;2.37;;;;;;;;;;5278742;27;20524;-73
2024/04/11 14:40:45;;;;;;;6.30;2.77;;;;;;;;;;5275738;26;20466;-74
2024/04/11 14:43:11;;;;;;;6.77;2.33;;;;;;;;;;5263712;27;20478;-72
2024/04/11 14:45:40;;;;;;;13.20;2.67;;;;;;;;;;5266361;27;20466;-74
2024/04/11 14:48:18;;;;;;;7.37;2.87;;;;;;;;;;5253561;27;20524;-75
2024/04/11 14:50:46;;;;;;;6.87;2.10;;;;;;;;;;5256560;27;20537;-74
2024/04/11 14:53:16;;;;;;;9.80;2.40;;;;;;;;;;5279871;27;20469;-74
2024/04/11 14:55:45;;;;;;;5.03;2.10;;;;;;;;;;5290401;27;20613;-75
2024/04/11 14:58:11;;;;;;;5.13;2.63;;;;;;;;;;5281269;27;20518;-75
2024/04/11 15:00:46;;;;;;;6.67;2.00;;;;;;;;;;5250987;26;21016;-76
2024/04/11 15:03:13;;;;;;;3.70;1.90;;;;;;;;;;5275318;27;20508;-78
2024/04/11 15:05:39;;;;;;;4.30;2.57;;;;;;;;;;5266301;27;20475;-74
2024/04/11 15:08:10;;;;;;;8.70;2.17;;;;;;;;;;5255420;27;20615;-75
2024/04/11 15:10:42;;;;;;;4.73;1.70;;;;;;;;;;5283462;27;20528;-73
2024/04/11 15:13:09;;;;;;;5.30;2.33;;;;;;;;;;5296978;26;20549;-72
2024/04/11 15:15:41;;;;;;;7.23;2.63;;;;;;;;;;5266158;27;20483;-73
2024/04/11 15:18:09;;;;;;;4.60;2.10;;;;;;;;;;5270004;27;20527;-73
2024/04/11 15:20:49;;;;;;;7.03;2.27;;;;;;;;;;5278734;27;20524;-72
2024/04/11 15:23:16;;;;;;;8.27;2.53;;;;;;;;;;5278516;27;20517;-73
2024/04/11 15:25:44;;;;;;;3.73;2.13;;;;;;;;;;5276810;27;20524;-72
2024/04/11 15:28:22;;;;;;;4.27;1.83;;;;;;;;;;5277452;27;20458;-72
2024/04/11 15:33:29;;;;;;;3.90;2.30;;;;;;;;;;5276498;27;20618;-74
2024/04/11 15:35:56;;;;;;;3.10;2.17;;;;;;;;;;5259153;27;20559;-72
2024/04/11 15:38:28;;;;;;;8.27;2.33;;;;;;;;;;5245057;27;20575;-72
2024/04/11 15:40:54;;;;;;;3.40;2.17;;;;;;;;;;5245545;27;20631;-74
2024/04/11 15:43:21;;;;;;;4.23;2.10;;;;;;;;;;5286349;27;20524;-73
2024/04/11 15:45:57;;;;;;;8.83;2.20;;;;;;;;;;5313086;26;20453;-73
2024/04/11 15:48:23;;;;;;;9.07;3.27;;;;;;;;;;5312700;27;20600;-73
2024/04/11 15:50:49;;;;;;;7.73;2.37;;;;;;;;;;5313051;27;20468;-73
2024/04/11 15:53:16;;;;;;;3.63;2.23;;;;;;;;;;5292668;27;20597;-73
2024/04/11 15:55:48;;;;;;;5.30;2.33;;;;;;;;;;5263929;27;20855;-72
2024/04/11 15:58:15;;;;;;;3.60;2.10;;;;;;;;;;5281667;27;20450;-72
2024/04/11 16:00:46;;;;;;;5.40;2.03;;;;;;;;;;5277890;27;20489;-72
2024/04/11 16:03:20;;;;;;;3.07;2.00;;;;;;;;;;5297360;27;20812;-72
2024/04/11 16:05:49;;;;;;;5.13;2.10;;;;;;;;;;5310978;27;20468;-73
2024/04/11 16:08:15;;;;;;;4.60;2.70;;;;;;;;;;5312430;27;20449;-74
2024/04/11 16:10:41;;;;;;;4.33;2.60;;;;;;;;;;5307805;27;20457;-74
2024/04/11 16:13:14;;;;;;;8.07;2.27;;;;;;;;;;5278050;27;21363;-74
2024/04/11 16:15:43;;;;;;;11.60;2.17;;;;;;;;;;5254090;27;20860;-74
2024/04/11 16:18:12;;;;;;;5.80;2.50;;;;;;;;;;5301065;27;20481;-75
2024/04/11 16:20:46;;;;;;;5.70;2.77;;;;;;;;;;5312387;27;20549;-74
2024/04/11 16:23:12;;;;;;;7.43;2.30;;;;;;;;;;5316755;26;20571;-74
2024/04/11 16:25:39;;;;;;;6.37;2.60;;;;;;;;;;5313348;26;20445;-71
2024/04/11 16:28:08;;;;;;;5.10;2.20;;;;;;;;;;5314113;26;20445;-72
2024/04/11 16:31:11;;;;;;;5.00;2.90;;;;;;;;;;5312533;26;20468;-73
2024/04/11 16:33:23;;;;;;;6.67;2.80;;;;;;;;;;5268586;27;21431;-73
2024/04/11 16:35:51;;;;;;;4.20;2.53;;;;;;;;;;5279103;27;20531;-74
2024/04/11 16:38:23;;;;;;;5.20;2.30;;;;;;;;;;5278620;27;20499;-74
2024/04/11 16:40:53;;;;;;;5.77;2.87;;;;;;;;;;5278246;27;20503;-73
2024/04/11 16:43:23;;;;;;;8.27;2.67;;;;;;;;;;5277775;27;20798;-74
2024/04/11 16:45:58;;;;;;;5.80;2.90;;;;;;;;;;5297157;27;20557;-72
2024/04/11 16:48:29;;;;;;;5.13;2.67;;;;;;;;;;5312178;26;20448;-73
2024/04/11 16:50:56;;;;;;;6.07;3.10;;;;;;;;;;5293420;26;20533;-74
2024/04/11 16:53:32;;;;;;;5.40;2.60;;;;;;;;;;5297772;26;20555;-73
2024/04/11 16:56:04;;;;;;;6.53;3.57;;;;;;;;;;5301864;27;20529;-73
2024/04/11 16:58:47;;;;;;;6.77;3.40;;;;;;;;;;5278132;27;20571;-74
2024/04/11 17:01:13;;;;;;;8.87;3.50;;;;;;;;;;5277642;27;20985;-72
2024/04/11 17:03:39;;;;;;;9.03;3.30;;;;;;;;;;5277479;27;20529;-72
2024/04/11 17:06:13;;;;;;;4.93;3.67;;;;;;;;;;5277474;27;20582;-72
2024/04/11 17:08:43;;;;;;;10.43;3.50;;;;;;;;;;5249422;27;21042;-73
2024/04/11 17:11:18;;;;;;;9.80;3.60;;;;;;;;;;5243722;27;20451;-73
2024/04/11 17:13:54;;;;;;;8.40;3.47;;;;;;;;;;5274119;21;20506;-76
2024/04/11 17:16:58;;;;;;;10.63;3.67;;;;;;;;;;5278308;27;20525;-76
2024/04/11 17:19:28;;;;;;;11.47;3.50;;;;;;;;;;5269222;27;20825;-76
2024/04/11 17:21:55;;;;;;;5.50;3.40;;;;;;;;;;5276638;27;20454;-75
2024/04/11 17:24:21;;;;;;;6.47;4.23;;;;;;;;;;5270810;27;20489;-75
2024/04/11 17:26:52;;;;;;;8.73;3.90;;;;;;;;;;5273870;27;21107;-76
2024/04/11 17:29:46;;;;;;;8.40;4.60;;;;;;;;;;5297134;26;20447;-76
2024/04/11 17:32:12;;;;;;;10.67;4.50;;;;;;;;;;5276968;27;20514;-76
2024/04/11 17:34:45;;;;;;;8.60;3.77;;;;;;;;;;5274678;27;20514;-75
2024/04/11 17:37:14;;;;;;;13.43;4.30;;;;;;;;;;5277131;27;20780;-76
2024/04/11 17:39:43;;;;;;;7.20;3.53;;;;;;;;;;5277865;27;20494;-76
2024/04/11 17:42:13;;;;;;;7.30;3.90;;;;;;;;;;5277147;27;20451;-76
2024/04/11 17:47:20;;;;;;;7.20;4.10;;;;;;;;;;5261012;27;20520;-76
2024/04/11 17:49:55;;;;;;;6.40;3.80;;;;;;;;;;5277724;27;20867;-76
2024/04/11 17:52:26;;;;;;;8.23;3.40;;;;;;;;;;5277990;27;20530;-76
2024/04/11 17:55:05;;;;;;;5.27;3.37;;;;;;;;;;5277649;27;20470;-76
2024/04/11 17:57:32;;;;;;;17.07;3.53;;;;;;;;;;5292710;27;20519;-76
2024/04/11 18:00:02;;;;;;;6.17;3.20;;;;;;;;;;5310015;27;20477;-76
2024/04/11 18:02:33;;;;;;;7.63;3.23;;;;;;;;;;5306686;26;20448;-76
2024/04/11 18:05:08;;;;;;;9.57;3.00;;;;;;;;;;5256261;27;20541;-75
2024/04/11 18:07:37;;;;;;;8.63;2.70;;;;;;;;;;5276165;27;20450;-75
2024/04/11 18:10:07;;;;;;;6.30;2.50;;;;;;;;;;5251617;27;20519;-76
2024/04/11 18:12:36;;;;;;;4.27;2.80;;;;;;;;;;5242674;27;20452;-76
2024/04/11 18:15:03;;;;;;;7.43;2.73;;;;;;;;;;5268933;27;20833;-76
2024/04/11 18:17:34;;;;;;;7.30;3.17;;;;;;;;;;5242942;27;20451;-76
2024/04/11 18:20:10;;;;;;;15.43;3.47;;;;;;;;;;5242116;27;20463;-76
2024/04/11 18:22:36;;;;;;;5.07;2.70;;;;;;;;;;5243478;27;20447;-75
2024/04/11 18:25:07;;;;;;;4.50;2.53;;;;;;;;;;5258619;27;21001;-76
2024/04/11 18:27:37;;;;;;;8.40;2.87;;;;;;;;;;5276897;27;20453;-76
2024/04/11 18:30:04;;;;;;;9.00;2.47;;;;;;;;;;5277607;27;20446;-76
2024/04/11 18:32:33;;;;;;;9.33;2.67;;;;;;;;;;5276704;27;20522;-75
2024/04/11 18:35:00;;;;;;;5.30;2.47;;;;;;;;;;5279707;27;20970;-76
2024/04/11 18:37:29;;;;;;;9.17;2.80;;;;;;;;;;5278391;27;20938;-75
2024/04/11 18:40:17;;;;;;;13.63;3.20;;;;;;;;;;5278458;27;20450;-75
2024/04/11 18:42:44;;;;;;;8.80;2.60;;;;;;;;;;5291283;27;20461;-76
2024/04/11 18:47:59;;;;;;;6.87;2.70;;;;;;;;;;5287175;27;21112;-75
2024/04/11 18:50:26;;;;;;;7.30;3.03;;;;;;;;;;5291461;27;20689;-75
2024/04/11 18:53:01;;;;;;;11.97;2.73;;;;;;;;;;5278710;27;20441;-76
2024/04/11 18:55:28;;;;;;;8.40;2.43;;;;;;;;;;5277046;27;20522;-76
2024/04/11 18:57:59;;;;;;;6.90;2.70;;;;;;;;;;5281700;27;20957;-76
2024/04/11 19:00:29;;;;;;;8.53;3.17;;;;;;;;;;5281519;27;20517;-76
2024/04/11 19:03:15;;;;;;;6.07;2.80;;;;;;;;;;5278866;27;20470;-77
2024/04/11 19:05:41;;;;;;;9.43;3.10;;;;;;;;;;5278364;27;20458;-76
2024/04/11 19:08:14;;;;;;;13.87;2.90;;;;;;;;;;5249850;27;20467;-77
2024/04/11 19:10:41;;;;;;;6.70;2.63;;;;;;;;;;5248085;27;20471;-77
2024/04/11 19:13:10;;;;;;;5.23;2.20;;;;;;;;;;5252474;27;20538;-75
2024/04/11 19:15:42;;;;;;;9.00;3.27;;;;;;;;;;5269949;27;20985;-77
2024/04/11 19:18:10;;;;;;;7.27;3.60;;;;;;;;;;5276357;27;20578;-76
2024/04/11 19:20:39;;;;;;;7.97;3.20;;;;;;;;;;5248278;27;20559;-71
2024/04/11 19:23:05;;;;;;;7.83;2.87;;;;;;;;;;5262625;27;20893;-72
2024/04/11 19:25:35;;;;;;;7.33;2.80;;;;;;;;;;5242019;27;20468;-71
2024/04/11 19:28:10;;;;;;;15.00;3.40;;;;;;;;;;5242629;27;20447;-72
2024/04/11 19:30:36;;;;;;;9.47;3.73;;;;;;;;;;5240847;27;21034;-71
2024/04/11 19:33:09;;;;;;;10.73;3.20;;;;;;;;;;5243238;27;20515;-71
2024/04/11 19:35:49;;;;;;;5.57;2.53;;;;;;;;;;5270148;27;20530;-71
2024/04/11 19:38:17;;;;;;;8.23;3.43;;;;;;;;;;5278935;27;20582;-71
2024/04/11 19:40:43;;;;;;;5.70;3.30;;;;;;;;;;5275679;27;20472;-71
2024/04/11 19:43:09;;;;;;;7.63;2.77;;;;;;;;;;5243080;27;20501;-71
2024/04/11 19:45:37;;;;;;;8.27;4.10;;;;;;;;;;5277785;27;20514;-70
2024/04/11 19:48:06;;;;;;;8.53;2.87;;;;;;;;;;5276425;27;21109;-70
2024/04/11 19:50:38;;;;;;;10.07;3.70;;;;;;;;;;5282437;27;20474;-76
2024/04/11 19:53:04;;;;;;;8.57;4.13;;;;;;;;;;5261486;27;20535;-75
2024/04/11 19:55:34;;;;;;;10.23;3.93;;;;;;;;;;5270654;27;21057;-74
2024/04/11 19:58:00;;;;;;;6.43;3.60;;;;;;;;;;5274624;27;20522;-76
2024/04/11 20:00:43;;;;;;;7.80;3.77;;;;;;;;;;5268511;27;20487;-76
2024/04/11 20:06:04;;;;;;;12.30;4.47;;;;;;;;;;5252379;27;20515;-77
2024/04/11 20:08:32;;;;;;;11.07;4.07;;;;;;;;;;5277075;27;20454;-76
2024/04/11 20:11:10;;;;;;;12.67;4.87;;;;;;;;;;5295199;27;20461;-75
2024/04/11 20:16:16;;;;;;;8.27;3.50;;;;;;;;;;5276741;27;20500;-75
2024/04/11 20:18:47;;;;;;;6.57;4.40;;;;;;;;;;5258469;27;21030;-76